createdAt,value
2022-12-05T00:01:45.514Z,20.20
2022-12-05T00:06:48.889Z,20.12
2022-12-05T00:11:52.263Z,20.04
2022-12-05T00:16:55.698Z,19.96
2022-12-05T00:21:59.107Z,19.88
2022-12-05T00:27:02.537Z,19.80
2022-12-05T00:32:06.159Z,19.73
2022-12-05T00:37:09.624Z,19.65
2022-12-05T00:42:12.965Z,19.59
2022-12-05T00:47:16.852Z,19.53
2022-12-05T00:52:20.506Z,19.48
2022-12-05T00:57:24.307Z,19.42
2022-12-05T01:02:28.050Z,19.36
2022-12-05T01:07:31.586Z,19.30
2022-12-05T01:12:35.009Z,19.24
2022-12-05T01:17:38.625Z,19.18
2022-12-05T01:22:42.024Z,19.13
2022-12-05T01:27:45.538Z,19.07
2022-12-05T01:32:48.941Z,19.01
2022-12-05T01:37:52.414Z,18.95
2022-12-05T01:42:56.190Z,18.88
2022-12-05T01:48:05.418Z,18.83
2022-12-05T01:53:09.197Z,18.77
2022-12-05T01:58:13.693Z,18.72
2022-12-05T02:03:20.585Z,18.65
2022-12-05T02:08:24.685Z,18.61
2022-12-05T02:13:40.644Z,18.56
2022-12-05T02:19:08.742Z,18.51
2022-12-05T02:24:44.522Z,18.46
2022-12-05T02:30:02.519Z,18.41
2022-12-05T02:35:25.878Z,18.37
2022-12-05T02:40:29.196Z,18.32
2022-12-05T02:45:37.316Z,18.29
2022-12-05T02:50:41.896Z,18.25
2022-12-05T02:55:46.825Z,18.20
2022-12-05T03:00:53.720Z,18.15
2022-12-05T03:06:15.262Z,18.11
2022-12-05T03:11:18.779Z,18.06
2022-12-05T03:16:41.920Z,18.02
2022-12-05T03:22:14.738Z,17.97
2022-12-05T03:27:57.900Z,17.93
2022-12-05T03:33:17.268Z,17.89
2022-12-05T03:38:35.436Z,17.85
2022-12-05T03:43:45.800Z,17.82
2022-12-05T03:49:04.279Z,17.79
2022-12-05T03:54:35.858Z,17.75
2022-12-05T03:59:58.663Z,17.71
2022-12-05T04:05:10.339Z,17.67
2022-12-05T04:10:20.019Z,17.62
2022-12-05T04:15:51.303Z,17.59
2022-12-05T04:21:17.082Z,17.55
2022-12-05T04:26:30.991Z,17.51
2022-12-05T04:31:42.456Z,17.48
2022-12-05T04:37:02.382Z,17.45
2022-12-05T04:42:10.893Z,17.41
2022-12-05T04:47:17.577Z,17.39
2022-12-05T04:52:22.707Z,17.38
2022-12-05T04:57:31.400Z,17.38
2022-12-05T05:02:48.568Z,17.37
2022-12-05T05:07:54.504Z,17.36
2022-12-05T05:12:58.645Z,17.34
2022-12-05T05:18:02.005Z,17.33
2022-12-05T05:23:05.438Z,17.34
2022-12-05T05:28:09.561Z,17.37
2022-12-05T05:33:13.330Z,17.44
2022-12-05T05:38:16.878Z,17.58
2022-12-05T05:43:20.403Z,17.83
2022-12-05T05:48:24.387Z,18.15
2022-12-05T05:53:28.213Z,18.48
2022-12-05T05:58:31.730Z,18.76
2022-12-05T06:03:35.653Z,19.01
2022-12-05T06:08:42.245Z,19.24
2022-12-05T06:13:46.085Z,19.45
2022-12-05T06:18:50.207Z,19.64
2022-12-05T06:23:54.494Z,19.83
2022-12-05T06:28:57.964Z,20.00
2022-12-05T06:34:03.738Z,20.13
2022-12-05T06:39:07.328Z,20.25
2022-12-05T06:44:10.668Z,20.39
2022-12-05T06:49:14.461Z,20.53
2022-12-05T06:54:17.989Z,20.64
2022-12-05T06:59:21.555Z,20.75
2022-12-05T07:04:25.229Z,20.85
2022-12-05T07:09:48.261Z,20.91
2022-12-05T07:14:51.945Z,20.96
2022-12-05T07:19:55.726Z,21.02
2022-12-05T07:24:59.441Z,21.07
2022-12-05T07:30:04.031Z,21.14
2022-12-05T07:35:08.509Z,21.21
2022-12-05T07:40:12.431Z,21.30
2022-12-05T07:45:15.889Z,21.38
2022-12-05T07:50:19.317Z,21.40
2022-12-05T07:55:23.320Z,21.44
2022-12-05T08:00:26.651Z,21.46
2022-12-05T08:05:30.033Z,21.45
2022-12-05T08:10:35.435Z,21.40
2022-12-05T08:15:38.802Z,21.36
2022-12-05T08:20:42.161Z,21.36
2022-12-05T08:25:45.562Z,21.34
2022-12-05T08:30:48.966Z,21.30
2022-12-05T08:35:52.625Z,21.31
2022-12-05T08:40:56.062Z,21.36
2022-12-05T08:46:01.045Z,21.42
2022-12-05T08:51:10.000Z,21.50
2022-12-05T08:56:14.341Z,21.59
2022-12-05T09:01:20.598Z,21.68
2022-12-05T09:06:25.574Z,21.72
2022-12-05T09:11:32.426Z,21.77
2022-12-05T09:16:39.117Z,21.82
2022-12-05T09:21:44.305Z,21.86
2022-12-05T09:26:47.917Z,21.90
2022-12-05T09:31:52.518Z,21.93
2022-12-05T09:37:10.638Z,22.00
2022-12-05T09:42:30.747Z,22.06
2022-12-05T09:47:47.661Z,22.09
2022-12-05T09:53:06.379Z,22.12
2022-12-05T09:58:21.095Z,22.16
2022-12-05T10:03:37.371Z,22.17
2022-12-05T10:09:34.968Z,22.18
2022-12-05T10:15:04.412Z,22.20
2022-12-05T10:20:22.494Z,22.19
2022-12-05T10:25:31.746Z,22.16
2022-12-05T10:30:37.186Z,22.13
2022-12-05T10:35:42.052Z,22.13
2022-12-05T10:40:51.529Z,22.12
2022-12-05T10:45:55.537Z,22.11
2022-12-05T10:51:00.131Z,21.97
2022-12-05T10:56:29.815Z,21.59
2022-12-05T11:01:28.209Z,21.21
2022-12-05T11:06:33.218Z,20.90
2022-12-05T11:11:36.990Z,20.69
2022-12-05T11:16:40.354Z,20.51
2022-12-05T11:21:44.433Z,20.38
2022-12-05T11:26:47.793Z,20.28
2022-12-05T11:31:52.722Z,19.98
2022-12-05T11:37:06.781Z,19.08
2022-12-05T11:42:21.457Z,18.15
2022-12-05T11:48:03.149Z,17.51
2022-12-05T11:53:21.627Z,16.90
2022-12-05T11:58:37.141Z,16.49
2022-12-05T12:03:49.324Z,16.25
2022-12-05T12:08:58.454Z,16.14
2022-12-05T12:14:06.712Z,15.93
2022-12-05T12:19:25.311Z,15.78
2022-12-05T12:25:00.756Z,15.68
2022-12-05T12:30:45.535Z,15.61
2022-12-05T12:36:04.427Z,15.50
2022-12-05T12:41:58.896Z,15.39
2022-12-05T12:47:05.403Z,15.30
2022-12-05T12:52:21.727Z,15.22
2022-12-05T12:57:55.760Z,15.11
2022-12-05T13:03:12.222Z,15.44
2022-12-05T13:08:51.249Z,16.07
2022-12-05T13:13:59.674Z,16.63
2022-12-05T13:19:06.106Z,17.04
2022-12-05T13:24:12.543Z,17.36
2022-12-05T13:29:41.563Z,17.62
2022-12-05T13:34:48.398Z,17.86
2022-12-05T13:40:14.012Z,18.03
2022-12-05T13:45:20.099Z,18.17
2022-12-05T13:50:46.046Z,18.28
2022-12-05T13:56:26.840Z,18.40
2022-12-05T14:01:55.319Z,18.51
2022-12-05T14:06:59.649Z,18.61
2022-12-05T14:12:14.943Z,18.68
2022-12-05T14:17:18.405Z,18.73
2022-12-05T14:22:28.759Z,18.79
2022-12-05T14:27:53.630Z,18.84
2022-12-05T14:33:02.092Z,18.90
2022-12-05T14:38:07.018Z,18.96
2022-12-05T14:43:22.455Z,19.03
2022-12-05T14:48:36.651Z,19.09
2022-12-05T14:53:43.245Z,19.14
2022-12-05T14:58:52.595Z,19.20
2022-12-05T15:04:01.752Z,19.24
2022-12-05T15:09:36.000Z,19.30
2022-12-05T15:14:47.118Z,19.38
2022-12-05T15:20:04.095Z,19.48
2022-12-05T15:25:34.902Z,19.54
2022-12-05T15:30:40.374Z,19.60
2022-12-05T15:35:48.825Z,19.63
2022-12-05T15:40:52.112Z,19.65
2022-12-05T15:46:26.333Z,19.68
2022-12-05T15:51:37.229Z,19.68
2022-12-05T15:56:50.865Z,19.68
2022-12-05T16:02:03.974Z,19.71
2022-12-05T16:07:11.738Z,19.77
2022-12-05T16:12:33.685Z,19.79
2022-12-05T16:17:42.689Z,19.66
2022-12-05T16:22:49.528Z,19.09
2022-12-05T16:28:02.646Z,19.02
2022-12-05T16:33:14.313Z,19.17
2022-12-05T16:38:22.571Z,19.35
2022-12-05T16:43:28.105Z,19.51
2022-12-05T16:48:32.600Z,19.62
2022-12-05T16:53:36.145Z,19.71
2022-12-05T16:58:39.645Z,19.88
2022-12-05T17:03:46.162Z,20.48
2022-12-05T17:08:51.586Z,21.03
2022-12-05T17:13:57.254Z,21.38
2022-12-05T17:19:20.885Z,22.16
2022-12-05T17:21:55.505Z,22.52
2022-12-05T17:24:29.326Z,22.62
